Strona główna
METAR-TAF:

METAR-TAF

Lotnisko :

Port lotniczy Szanghaj-Pudong

Szanghaj-Pudong, Chiny

Szerokość geograficzna: 31-07N, Długość geograficzna: 121-46E, wysokość: 4 m

Aktualna obserwacja pogody

Raport powstał 19 minut temu, godzina 19:30 UTC
Wiatr 8 kt od południowo-południowy zachód
Temperatura 26°C
Wilgotność 94%
Ciśnienie 1006 hPa
Widzialność 10 km lub więcej
Brak chmur poniżej 1500 m i brak chmur cumulonimbus

METAR: ZSPD 251930Z 20004MPS CAVOK 26/25 Q1006 NOSIG

czas: 03:49 (19:49 UTC)

Prognoza

Raport powstał 4 godziny i 30 minut temu, godzina 15:19 UTC
Prognoza ważna od 25 godzina 18 UTC do 26 godzina 18 UTC
Wiatr 8 kt od południe
Widzialność: 6000 m
Rozproszone chmury na wysokości 2000 ft

TAF: ZSPD 251519Z 2518/2618 17004MPS 6000 SCT020 TX36/2606Z TN25/2520Z

Obserwacja i prognoza pogody dla ponad 4000 lotnisk (raport METAR i TAF).

Dostępne stacje oznaczono żółtymi i czerwonymi punktami na mapie.

Najedź kursorem aby zobaczyć nazwę stacji.

Kliknij aby zobaczyć obserwacje i prognozy pogody.

Aby zmienić mapę: kliknij na zielony przycisk z czarnym krzyżykiem, aby powiększyć; na zielony przycisk z myślnikiem, aby pomniejszyć; na zielone strzałki, aby przejść do map sąsiednich.


METAR-TAF: